Time;durP1;ratioP1;P1;durP2;ratioP2;P2;SDS_P1;SDS_P2;PMS_P1;PMS_P2;Temp;Humidity;BMP_temperature;BMP_pressure;BME280_temperature;BME280_humidity;BME280_pressure;Samples;Min_cycle;Max_cycle;Signal;HPM_P1;HPM_P2
2021/07/20 00:02:38;;;;;;;13.25;7.05;;;15.60;99.90;;;;;;5053019;28;20108;-46
2021/07/20 00:05:05;;;;;;;15.00;7.65;;;15.60;99.90;;;;;;5061286;28;20689;-47
2021/07/20 00:07:32;;;;;;;12.35;7.07;;;15.60;99.90;;;;;;5055953;28;20383;-47
2021/07/20 00:09:58;;;;;;;11.85;7.85;;;15.60;99.90;;;;;;5060198;28;20025;-46
2021/07/20 00:12:23;;;;;;;13.13;7.65;;;15.60;99.90;;;;;;5057039;28;20029;-47
2021/07/20 00:14:49;;;;;;;10.10;7.10;;;15.50;99.90;;;;;;5062133;28;20029;-47
2021/07/20 00:17:15;;;;;;;12.70;6.93;;;15.50;99.90;;;;;;5056465;28;20025;-47
2021/07/20 00:19:40;;;;;;;11.65;6.63;;;15.50;99.90;;;;;;5056620;28;20028;-47
2021/07/20 00:22:06;;;;;;;12.02;7.07;;;15.50;99.90;;;;;;5037753;28;20049;-48
2021/07/20 00:24:31;;;;;;;10.75;7.13;;;15.50;99.90;;;;;;5034554;28;20040;-48
2021/07/20 00:26:57;;;;;;;10.73;7.63;;;15.50;99.90;;;;;;5029832;28;20120;-46
2021/07/20 00:29:22;;;;;;;11.85;6.70;;;15.40;99.90;;;;;;5031356;28;20043;-47
2021/07/20 00:31:47;;;;;;;14.38;8.00;;;15.40;99.90;;;;;;5032994;28;20053;-46
2021/07/20 00:34:13;;;;;;;11.32;7.53;;;15.40;99.90;;;;;;5037492;28;20078;-47
2021/07/20 00:36:38;;;;;;;11.90;7.55;;;15.40;99.90;;;;;;5031811;28;20029;-47
2021/07/20 00:39:05;;;;;;;12.55;7.30;;;15.40;99.90;;;;;;5029985;28;20028;-48
2021/07/20 00:41:31;;;;;;;15.23;7.32;;;15.40;99.90;;;;;;5028870;28;20022;-46
2021/07/20 00:43:57;;;;;;;13.18;8.23;;;15.40;99.90;;;;;;5032487;28;20160;-47
2021/07/20 00:46:23;;;;;;;12.88;7.43;;;15.40;99.90;;;;;;5028974;28;20117;-46
2021/07/20 00:48:48;;;;;;;13.52;6.53;;;15.40;99.90;;;;;;5027771;28;20036;-48
2021/07/20 00:51:14;;;;;;;10.43;7.78;;;15.40;99.90;;;;;;5039025;28;20127;-46
2021/07/20 00:53:39;;;;;;;11.48;6.32;;;15.40;99.90;;;;;;5034721;28;20025;-46
2021/07/20 00:56:05;;;;;;;9.23;7.07;;;15.40;99.90;;;;;;5035895;28;20076;-47
2021/07/20 00:58:31;;;;;;;11.23;6.32;;;15.40;99.90;;;;;;5037197;28;20068;-47
2021/07/20 01:00:56;;;;;;;11.18;6.63;;;15.40;99.90;;;;;;5035620;28;20029;-47
2021/07/20 01:03:22;;;;;;;16.40;7.93;;;15.40;99.90;;;;;;5041824;28;20033;-47
2021/07/20 01:05:48;;;;;;;9.63;7.32;;;15.40;99.90;;;;;;5036036;28;20040;-46
2021/07/20 01:08:15;;;;;;;13.13;7.07;;;15.40;99.90;;;;;;5058502;28;20037;-47
2021/07/20 01:10:43;;;;;;;11.13;6.93;;;15.50;99.90;;;;;;5045108;28;20013;-47
2021/07/20 01:13:09;;;;;;;9.30;7.07;;;15.40;99.90;;;;;;5045616;28;20026;-47
2021/07/20 01:15:36;;;;;;;12.98;7.28;;;15.40;99.90;;;;;;5047979;28;20017;-47
2021/07/20 01:18:05;;;;;;;9.43;6.50;;;15.40;99.90;;;;;;5055719;28;20521;-46
2021/07/20 01:20:32;;;;;;;11.98;6.95;;;15.40;99.90;;;;;;5059786;28;20117;-47
2021/07/20 01:23:19;;;;;;;12.82;7.38;;;15.40;99.90;;;;;;5053389;28;20029;-46
2021/07/20 01:25:46;;;;;;;14.50;7.40;;;15.40;99.90;;;;;;5063743;28;20111;-49
2021/07/20 01:28:17;;;;;;;11.35;7.38;;;15.40;99.90;;;;;;5052122;28;20158;-46
2021/07/20 01:30:46;;;;;;;11.77;7.10;;;15.40;99.90;;;;;;5060314;28;20101;-48
2021/07/20 01:33:12;;;;;;;10.98;7.32;;;15.40;99.90;;;;;;5058550;28;20033;-48
2021/07/20 01:35:39;;;;;;;11.10;7.03;;;15.40;99.90;;;;;;5059348;28;20032;-48
2021/07/20 01:38:08;;;;;;;10.20;6.97;;;15.40;99.90;;;;;;5057480;28;20032;-48
2021/07/20 01:40:35;;;;;;;13.55;7.40;;;15.40;99.90;;;;;;5059503;28;20069;-48
2021/07/20 01:43:02;;;;;;;11.57;6.88;;;15.40;99.90;;;;;;5056796;28;20032;-48
2021/07/20 01:45:30;;;;;;;11.88;7.43;;;15.40;99.90;;;;;;5059247;28;20257;-47
2021/07/20 01:47:58;;;;;;;10.40;7.10;;;15.40;99.90;;;;;;5058763;28;20112;-50
2021/07/20 01:50:25;;;;;;;12.77;7.53;;;15.40;99.90;;;;;;5059610;28;20025;-50
2021/07/20 01:52:52;;;;;;;14.40;6.88;;;15.40;99.90;;;;;;5052726;28;20024;-48
2021/07/20 01:55:18;;;;;;;9.50;6.22;;;15.30;99.90;;;;;;5051286;28;20578;-48
2021/07/20 01:57:44;;;;;;;14.35;7.15;;;15.30;99.90;;;;;;5059472;28;20061;-50
2021/07/20 02:00:16;;;;;;;14.13;7.45;;;15.40;99.90;;;;;;5056868;28;20042;-49
2021/07/20 02:02:57;;;;;;;14.20;6.50;;;15.30;99.90;;;;;;5049207;28;20022;-50
2021/07/20 02:10:48;;;;;;;10.68;7.18;;;15.40;99.90;;;;;;5059951;28;20047;-47
2021/07/20 02:13:16;;;;;;;10.85;6.80;;;15.40;99.90;;;;;;5062065;28;20016;-46
2021/07/20 02:15:44;;;;;;;10.43;7.03;;;15.40;99.90;;;;;;5060637;28;20025;-46
2021/07/20 02:18:10;;;;;;;12.75;7.15;;;15.30;99.90;;;;;;5061104;28;20078;-50
2021/07/20 02:20:40;;;;;;;12.55;7.13;;;15.30;99.90;;;;;;5061604;28;20031;-48
2021/07/20 02:23:07;;;;;;;13.65;7.20;;;15.30;99.90;;;;;;5058493;28;20267;-47
2021/07/20 02:25:34;;;;;;;13.25;6.95;;;15.20;99.90;;;;;;5065397;28;20098;-46
2021/07/20 02:28:02;;;;;;;11.85;6.90;;;15.20;99.90;;;;;;5061705;28;20111;-47
2021/07/20 02:30:28;;;;;;;11.50;6.95;;;15.20;99.90;;;;;;5061138;28;20039;-48
2021/07/20 02:32:54;;;;;;;7.85;6.45;;;15.20;99.90;;;;;;5061928;28;20036;-47
2021/07/20 02:35:25;;;;;;;12.00;7.07;;;15.30;99.90;;;;;;5062458;28;20437;-47
2021/07/20 02:37:53;;;;;;;9.82;6.25;;;15.20;99.90;;;;;;5063118;28;20039;-49
2021/07/20 02:40:22;;;;;;;10.32;6.85;;;15.30;99.90;;;;;;5052389;28;20453;-48
2021/07/20 02:42:49;;;;;;;8.70;6.30;;;15.30;99.90;;;;;;5062839;28;20031;-49
2021/07/20 02:45:15;;;;;;;9.07;6.32;;;15.20;99.90;;;;;;5060613;28;20029;-47
2021/07/20 02:47:41;;;;;;;11.10;7.20;;;15.20;99.90;;;;;;5062349;28;20501;-48
2021/07/20 02:50:09;;;;;;;11.82;7.38;;;15.20;99.90;;;;;;5061337;28;20029;-47
2021/07/20 02:52:37;;;;;;;14.27;7.78;;;15.20;99.90;;;;;;5057606;28;20017;-48
2021/07/20 02:55:04;;;;;;;11.93;7.07;;;15.10;99.90;;;;;;5062160;28;20016;-48
2021/07/20 02:57:32;;;;;;;12.40;7.45;;;15.20;99.90;;;;;;5061931;28;20436;-47
2021/07/20 02:59:58;;;;;;;11.35;6.70;;;15.10;99.90;;;;;;5061222;28;20021;-47
2021/07/20 03:02:25;;;;;;;12.73;7.95;;;15.10;99.90;;;;;;5041537;28;20028;-47
2021/07/20 03:04:50;;;;;;;13.48;7.60;;;15.10;99.90;;;;;;5065683;28;20084;-47
2021/07/20 03:07:24;;;;;;;12.63;7.78;;;15.10;99.90;;;;;;5063246;28;20029;-50
2021/07/20 03:09:51;;;;;;;12.32;8.07;;;15.10;99.90;;;;;;5062007;28;20032;-49
2021/07/20 03:12:19;;;;;;;14.25;7.57;;;15.10;99.90;;;;;;5055904;28;20025;-48
2021/07/20 03:14:45;;;;;;;14.18;7.55;;;15.10;99.90;;;;;;5062818;28;20389;-47
2021/07/20 03:17:12;;;;;;;14.45;7.75;;;15.10;99.90;;;;;;5058616;28;20100;-48
2021/07/20 03:19:40;;;;;;;12.20;8.15;;;15.10;99.90;;;;;;5057713;28;20029;-47
2021/07/20 03:22:13;;;;;;;12.25;8.05;;;15.10;99.90;;;;;;5055493;28;20360;-47
2021/07/20 03:24:40;;;;;;;14.52;8.18;;;15.10;99.90;;;;;;5053256;28;20101;-47
2021/07/20 03:27:07;;;;;;;12.27;7.78;;;15.10;99.90;;;;;;5037082;28;20383;-47
2021/07/20 03:29:40;;;;;;;13.80;7.15;;;15.10;99.90;;;;;;5048623;28;20035;-48
2021/07/20 03:32:09;;;;;;;11.90;7.40;;;15.10;99.90;;;;;;5040777;28;20092;-47
2021/07/20 03:34:35;;;;;;;11.27;7.70;;;15.10;99.90;;;;;;5045218;28;20025;-47
2021/07/20 03:37:01;;;;;;;11.18;7.70;;;15.10;99.90;;;;;;5053214;28;20548;-47
2021/07/20 03:39:27;;;;;;;13.50;7.70;;;15.00;99.90;;;;;;5043510;28;20028;-50
2021/07/20 03:41:53;;;;;;;10.07;7.32;;;15.10;99.90;;;;;;5046668;28;20444;-47
2021/07/20 03:44:19;;;;;;;17.38;8.90;;;15.00;99.90;;;;;;5053443;28;20032;-47
2021/07/20 03:46:45;;;;;;;15.18;8.50;;;15.10;99.90;;;;;;5047818;28;20125;-48
2021/07/20 03:49:12;;;;;;;14.15;8.48;;;15.00;99.90;;;;;;5038838;28;20092;-48
2021/07/20 03:51:38;;;;;;;12.82;7.68;;;15.00;99.90;;;;;;5031838;28;20506;-49
2021/07/20 03:54:07;;;;;;;15.85;8.52;;;15.10;99.90;;;;;;5032922;28;20040;-47
2021/07/20 03:56:34;;;;;;;15.88;8.43;;;15.00;99.90;;;;;;5031960;28;20025;-47
2021/07/20 03:59:00;;;;;;;10.80;7.90;;;15.00;99.90;;;;;;5032507;28;20076;-47
2021/07/20 04:01:31;;;;;;;10.88;7.53;;;15.10;99.90;;;;;;5042874;28;20036;-46
2021/07/20 04:03:56;;;;;;;;;;;15.10;99.90;;;;;;5040067;28;20026;-47
2021/07/20 04:06:25;;;;;;;15.85;8.07;;;15.10;99.90;;;;;;5054087;28;19946;-47
2021/07/20 04:08:52;;;;;;;14.35;7.78;;;15.00;99.90;;;;;;5048675;28;20026;-46
2021/07/20 04:11:18;;;;;;;11.55;7.15;;;15.00;99.90;;;;;;5041896;28;20077;-50
2021/07/20 04:13:44;;;;;;;16.83;8.77;;;15.00;99.90;;;;;;5049802;28;20025;-48
2021/07/20 04:16:11;;;;;;;14.98;8.10;;;15.10;99.90;;;;;;5040761;28;20022;-47
2021/07/20 04:18:38;;;;;;;11.48;7.50;;;15.00;99.90;;;;;;5058265;28;20025;-47
2021/07/20 04:21:05;;;;;;;14.02;8.07;;;15.10;99.90;;;;;;5047916;28;20025;-46
2021/07/20 04:23:32;;;;;;;13.00;8.40;;;15.10;99.90;;;;;;5050785;28;20473;-47
2021/07/20 04:25:58;;;;;;;14.57;8.32;;;15.10;99.90;;;;;;5058446;28;20107;-46
2021/07/20 04:28:26;;;;;;;16.17;7.30;;;15.10;99.90;;;;;;5042340;28;20053;-47
2021/07/20 04:30:51;;;;;;;14.40;7.50;;;15.10;99.90;;;;;;5045357;28;20458;-47
2021/07/20 04:33:37;;;;;;;12.50;8.15;;;15.10;99.90;;;;;;5047012;28;20116;-47
2021/07/20 04:36:04;;;;;;;14.80;7.10;;;15.10;99.90;;;;;;5052352;28;20037;-47
2021/07/20 04:38:36;;;;;;;17.13;7.35;;;15.10;99.90;;;;;;5044138;28;20079;-47
2021/07/20 04:41:02;;;;;;;12.95;7.85;;;15.10;99.90;;;;;;5057178;28;20027;-47
2021/07/20 04:43:28;;;;;;;10.48;7.13;;;15.10;99.90;;;;;;5045807;28;20101;-47
2021/07/20 04:45:56;;;;;;;15.52;8.18;;;15.20;99.90;;;;;;5056347;28;20108;-48
2021/07/20 04:48:22;;;;;;;13.52;8.05;;;15.10;99.90;;;;;;5047626;28;20021;-50
2021/07/20 04:50:50;;;;;;;15.57;9.02;;;15.10;99.90;;;;;;5055346;28;20624;-49
2021/07/20 04:53:16;;;;;;;13.10;8.27;;;15.10;99.90;;;;;;5057432;28;20401;-48
2021/07/20 04:55:43;;;;;;;16.10;7.95;;;15.10;99.90;;;;;;5044110;28;20365;-47
2021/07/20 04:58:09;;;;;;;11.52;7.60;;;15.10;99.90;;;;;;5059773;28;20627;-49
2021/07/20 05:00:35;;;;;;;12.10;7.45;;;15.10;99.90;;;;;;5043828;28;20134;-50
2021/07/20 05:03:03;;;;;;;11.40;8.13;;;15.10;99.90;;;;;;5045111;28;20029;-50
2021/07/20 05:05:32;;;;;;;13.30;8.48;;;15.10;99.90;;;;;;5030942;28;20034;-50
2021/07/20 05:08:00;;;;;;;11.88;7.90;;;15.10;99.90;;;;;;5035173;28;20128;-49
2021/07/20 05:10:26;;;;;;;11.50;7.85;;;15.10;99.90;;;;;;5031107;28;20026;-49
2021/07/20 05:12:52;;;;;;;18.30;8.20;;;15.10;99.90;;;;;;5032522;28;20021;-50
2021/07/20 05:15:20;;;;;;;14.27;8.02;;;15.10;99.90;;;;;;5052028;28;20051;-47
2021/07/20 05:17:46;;;;;;;13.05;8.23;;;15.10;99.90;;;;;;5052272;28;20085;-50
2021/07/20 05:20:18;;;;;;;11.27;7.65;;;15.10;99.90;;;;;;5054469;28;20064;-50
2021/07/20 05:22:45;;;;;;;14.05;8.32;;;15.10;99.90;;;;;;5051800;28;20433;-49
2021/07/20 05:25:12;;;;;;;15.43;7.63;;;15.10;99.90;;;;;;5061574;28;20111;-49
2021/07/20 05:27:46;;;;;;;14.00;8.25;;;15.10;99.90;;;;;;5046732;28;20091;-48
2021/07/20 05:30:13;;;;;;;12.05;7.85;;;15.20;99.90;;;;;;5058159;28;20029;-50
2021/07/20 05:32:44;;;;;;;14.75;8.23;;;15.20;99.90;;;;;;5057023;28;20115;-48
2021/07/20 05:35:12;;;;;;;12.48;7.63;;;15.30;99.90;;;;;;5058225;28;20024;-47
2021/07/20 05:37:40;;;;;;;13.02;7.20;;;15.40;99.90;;;;;;5050447;28;20043;-48
2021/07/20 05:40:11;;;;;;;10.45;7.03;;;15.40;99.90;;;;;;5056540;28;20024;-47
2021/07/20 05:42:37;;;;;;;12.57;7.30;;;15.50;99.90;;;;;;5055238;28;20031;-50
2021/07/20 05:45:05;;;;;;;14.45;6.88;;;15.50;99.90;;;;;;5053852;28;20025;-47
2021/07/20 05:47:35;;;;;;;12.18;6.63;;;15.50;99.90;;;;;;5067501;28;20060;-47
2021/07/20 05:50:01;;;;;;;10.52;6.15;;;15.60;99.90;;;;;;5053528;28;20443;-47
2021/07/20 05:52:27;;;;;;;9.25;6.82;;;15.60;99.90;;;;;;5065202;28;20101;-47
2021/07/20 05:54:54;;;;;;;16.65;7.40;;;15.60;99.90;;;;;;5044311;28;20047;-47
2021/07/20 05:57:25;;;;;;;10.02;7.32;;;15.60;99.90;;;;;;5051509;28;20035;-48
2021/07/20 05:59:52;;;;;;;12.25;6.78;;;15.70;99.90;;;;;;5044101;28;20022;-47
2021/07/20 06:02:19;;;;;;;13.07;6.75;;;15.70;99.90;;;;;;5052596;28;20090;-47
2021/07/20 06:04:45;;;;;;;13.27;7.13;;;15.80;99.90;;;;;;5042341;28;20053;-48
2021/07/20 06:07:12;;;;;;;9.07;6.63;;;15.80;99.90;;;;;;5041093;28;20033;-47
2021/07/20 06:09:41;;;;;;;14.38;6.25;;;15.90;99.90;;;;;;5041476;28;20108;-49
2021/07/20 06:12:08;;;;;;;15.73;6.75;;;16.00;99.90;;;;;;5046233;28;20091;-48
2021/07/20 06:14:35;;;;;;;13.52;7.78;;;16.10;99.90;;;;;;5049923;28;20032;-47
2021/07/20 06:17:01;;;;;;;11.63;7.05;;;16.10;99.90;;;;;;5059508;28;20040;-47
2021/07/20 06:19:27;;;;;;;16.50;6.68;;;16.30;99.90;;;;;;5057641;28;20112;-46
2021/07/20 06:21:54;;;;;;;8.93;6.00;;;16.30;99.90;;;;;;5049453;28;20048;-47
2021/07/20 06:24:22;;;;;;;9.15;5.85;;;16.30;99.90;;;;;;5067804;28;20494;-48
2021/07/20 06:26:49;;;;;;;15.38;6.40;;;16.30;99.90;;;;;;5056330;28;20045;-49
2021/07/20 06:29:15;;;;;;;9.55;5.57;;;16.30;99.90;;;;;;5067271;28;20107;-49
2021/07/20 06:31:44;;;;;;;7.45;5.07;;;16.40;99.90;;;;;;5053764;28;20029;-50
2021/07/20 06:34:13;;;;;;;12.30;6.00;;;16.50;99.90;;;;;;5051634;28;20029;-50
2021/07/20 06:36:42;;;;;;;8.45;5.53;;;16.50;99.90;;;;;;5057633;28;20021;-48
2021/07/20 06:39:08;;;;;;;12.18;5.85;;;16.60;99.90;;;;;;5050089;28;20029;-47
2021/07/20 06:41:35;;;;;;;8.60;5.47;;;16.80;99.90;;;;;;5047885;28;20032;-48
2021/07/20 06:44:02;;;;;;;8.48;4.80;;;16.90;99.90;;;;;;5054090;28;20028;-48
2021/07/20 06:46:29;;;;;;;8.95;4.90;;;17.00;99.90;;;;;;5051450;28;20083;-47
2021/07/20 06:48:55;;;;;;;6.90;4.95;;;17.10;99.90;;;;;;5050433;28;20029;-47
2021/07/20 06:51:22;;;;;;;9.38;4.80;;;17.20;99.90;;;;;;5053477;28;20039;-47
2021/07/20 06:53:48;;;;;;;11.80;4.85;;;17.30;99.90;;;;;;5054030;28;20026;-47
2021/07/20 06:56:42;;;;;;;10.23;5.03;;;17.40;99.90;;;;;;5051908;28;20024;-47
2021/07/20 06:59:09;;;;;;;9.00;5.03;;;17.30;99.90;;;;;;5043666;28;20037;-47
2021/07/20 07:01:36;;;;;;;8.20;4.70;;;17.30;99.90;;;;;;5039502;28;20014;-49
2021/07/20 07:04:10;;;;;;;10.80;5.50;;;17.40;99.90;;;;;;5050512;28;20022;-48
2021/07/20 07:06:43;;;;;;;7.35;4.32;;;17.40;99.90;;;;;;5048332;28;20160;-47
2021/07/20 07:09:11;;;;;;;11.98;5.45;;;17.40;99.90;;;;;;5050417;28;20030;-47
2021/07/20 07:11:41;;;;;;;5.85;4.63;;;17.50;99.90;;;;;;5039762;28;20026;-49
2021/07/20 07:14:09;;;;;;;7.90;5.22;;;17.50;99.90;;;;;;5045542;28;20021;-50
2021/07/20 07:16:37;;;;;;;16.75;5.55;;;17.60;99.90;;;;;;5052537;28;20040;-47
2021/07/20 07:19:03;;;;;;;8.25;4.30;;;17.40;99.90;;;;;;5066734;28;20042;-51
2021/07/20 07:21:30;;;;;;;9.57;4.57;;;17.50;99.90;;;;;;5051445;28;20039;-47
2021/07/20 07:23:56;;;;;;;8.05;3.85;;;17.60;99.90;;;;;;5065684;28;20036;-47
2021/07/20 07:26:22;;;;;;;6.93;5.00;;;17.70;99.90;;;;;;5054878;28;20029;-47
2021/07/20 07:28:52;;;;;;;9.80;4.72;;;17.80;99.90;;;;;;5063640;28;20710;-47
2021/07/20 07:31:18;;;;;;;6.57;3.88;;;17.90;99.90;;;;;;5055624;28;20462;-48
2021/07/20 07:33:44;;;;;;;7.82;4.72;;;17.90;99.90;;;;;;5047653;28;20094;-48
2021/07/20 07:36:11;;;;;;;12.05;4.72;;;18.00;99.90;;;;;;5052381;28;20483;-48
2021/07/20 07:38:39;;;;;;;6.53;4.55;;;17.90;99.90;;;;;;5033219;28;20032;-47
2021/07/20 07:41:05;;;;;;;7.78;4.53;;;18.10;99.90;;;;;;5055863;28;20028;-49
2021/07/20 07:43:33;;;;;;;9.63;4.40;;;18.10;99.90;;;;;;5038271;28;20021;-47
2021/07/20 07:46:00;;;;;;;8.73;4.28;;;18.20;99.90;;;;;;5031305;28;20025;-47
2021/07/20 07:48:27;;;;;;;5.30;3.88;;;18.50;99.90;;;;;;5031256;28;20046;-47
2021/07/20 07:50:57;;;;;;;8.88;3.60;;;18.70;99.90;;;;;;5034357;28;20149;-48
2021/07/20 07:53:23;;;;;;;10.38;4.38;;;18.80;99.90;;;;;;5031448;28;20026;-50
2021/07/20 07:55:51;;;;;;;12.20;4.38;;;18.90;99.90;;;;;;5031172;28;20070;-47
2021/07/20 07:58:17;;;;;;;11.52;3.80;;;19.30;99.90;;;;;;5048006;28;20026;-49
2021/07/20 08:00:45;;;;;;;8.55;4.00;;;19.50;99.90;;;;;;5050858;28;20082;-48
2021/07/20 08:03:13;;;;;;;7.45;4.32;;;19.70;99.90;;;;;;5056352;28;20032;-48
2021/07/20 08:05:41;;;;;;;8.63;4.18;;;19.90;99.90;;;;;;5047069;28;20049;-47
2021/07/20 08:08:08;;;;;;;6.93;3.72;;;20.00;99.90;;;;;;5058104;28;20028;-47
2021/07/20 08:10:34;;;;;;;9.05;3.65;;;20.20;99.90;;;;;;5057485;28;20207;-50
2021/07/20 08:13:02;;;;;;;6.82;3.50;;;20.20;99.90;;;;;;5046287;28;20032;-47
2021/07/20 08:15:28;;;;;;;9.88;4.25;;;20.40;99.90;;;;;;5040650;28;20105;-48
2021/07/20 08:17:54;;;;;;;5.65;4.00;;;20.50;99.90;;;;;;5060529;28;20458;-50
2021/07/20 08:20:20;;;;;;;8.82;3.92;;;20.50;99.90;;;;;;5049300;28;20033;-49
2021/07/20 08:22:47;;;;;;;8.60;4.45;;;20.50;99.90;;;;;;5057083;28;20025;-47
2021/07/20 08:25:31;;;;;;;7.53;3.60;;;20.50;99.90;;;;;;5063343;28;20497;-47
2021/07/20 08:28:05;;;;;;;5.97;3.22;;;20.40;99.90;;;;;;5055843;28;20025;-47
2021/07/20 08:30:46;;;;;;;11.15;3.97;;;20.80;99.90;;;;;;5052427;28;20496;-48
2021/07/20 08:33:20;;;;;;;7.97;3.53;;;20.90;99.90;;;;;;5061855;28;20036;-47
2021/07/20 08:35:48;;;;;;;8.40;3.40;;;20.70;99.90;;;;;;5061824;28;20028;-49
2021/07/20 08:38:15;;;;;;;6.45;3.30;;;20.50;99.90;;;;;;5058604;28;20056;-50
2021/07/20 08:40:51;;;;;;;8.55;3.67;;;20.20;99.90;;;;;;5042360;28;20078;-50
2021/07/20 08:43:49;;;;;;;8.23;4.00;;;20.00;99.90;;;;;;5061958;28;20032;-50
2021/07/20 08:46:42;;;;;;;10.65;3.70;;;19.90;99.90;;;;;;5064972;28;20025;-50
2021/07/20 08:49:25;;;;;;;5.45;3.22;;;19.80;99.90;;;;;;5040075;28;20036;-48
2021/07/20 08:52:18;;;;;;;11.57;3.70;;;19.70;99.90;;;;;;5036114;28;20032;-50
2021/07/20 08:54:51;;;;;;;12.27;4.53;;;19.60;99.90;;;;;;5034436;28;20025;-49
2021/07/20 08:57:25;;;;;;;7.05;4.07;;;19.40;99.90;;;;;;5035027;28;20146;-49
2021/07/20 09:00:11;;;;;;;7.43;4.00;;;19.50;99.90;;;;;;5035998;28;20068;-47
2021/07/20 09:03:08;;;;;;;8.57;4.50;;;19.50;99.90;;;;;;5036360;28;20158;-47
2021/07/20 09:05:50;;;;;;;6.40;3.75;;;19.50;99.90;;;;;;5036344;28;20063;-48
2021/07/20 09:08:18;;;;;;;7.43;3.88;;;19.40;99.90;;;;;;5037378;28;20090;-47
2021/07/20 09:11:02;;;;;;;9.32;4.18;;;19.40;99.90;;;;;;5035807;28;20395;-47
2021/07/20 09:13:32;;;;;;;8.93;3.67;;;19.60;99.90;;;;;;5031889;28;20013;-47
2021/07/20 09:16:09;;;;;;;7.55;3.17;;;19.40;99.90;;;;;;5036454;28;20483;-47
2021/07/20 09:18:47;;;;;;;7.72;3.47;;;19.70;99.90;;;;;;5034933;28;20041;-48
2021/07/20 09:21:14;;;;;;;6.85;3.60;;;19.80;99.90;;;;;;5037807;28;20029;-47
2021/07/20 09:23:48;;;;;;;8.30;4.20;;;19.90;99.90;;;;;;5033812;28;20021;-47
2021/07/20 09:26:19;;;;;;;8.57;3.45;;;20.20;99.90;;;;;;5036469;28;20104;-46
2021/07/20 09:29:00;;;;;;;4.93;3.03;;;20.30;99.00;;;;;;5034175;28;20025;-49
2021/07/20 09:31:47;;;;;;;5.82;2.97;;;20.30;98.80;;;;;;5035907;28;20525;-51
2021/07/20 09:34:37;;;;;;;7.78;3.53;;;20.40;98.20;;;;;;5040156;28;20458;-48
2021/07/20 09:37:06;;;;;;;6.05;3.50;;;20.40;98.30;;;;;;5046350;28;20550;-48
2021/07/20 09:40:26;;;;;;;11.18;3.67;;;20.30;98.70;;;;;;5041701;28;20043;-47
2021/07/20 09:43:06;;;;;;;9.77;3.60;;;20.40;98.90;;;;;;4998881;28;20026;-48
2021/07/20 09:45:40;;;;;;;6.43;3.55;;;20.30;97.60;;;;;;5034703;28;20048;-48
2021/07/20 09:48:28;;;;;;;5.35;3.42;;;20.20;97.00;;;;;;5048261;28;20026;-47
2021/07/20 09:51:16;;;;;;;6.13;3.15;;;20.20;98.80;;;;;;5043856;28;20409;-48
2021/07/20 09:53:41;;;;;;;10.02;4.35;;;20.20;98.20;;;;;;5045220;28;20349;-48
2021/07/20 09:56:24;;;;;;;4.50;3.17;;;20.70;99.10;;;;;;5036937;28;20079;-48
2021/07/20 09:59:20;;;;;;;8.60;3.45;;;22.10;96.30;;;;;;5048575;28;20017;-45
2021/07/20 10:01:52;;;;;;;6.63;3.45;;;22.50;94.80;;;;;;5032169;28;20439;-46
2021/07/20 10:04:37;;;;;;;8.43;3.20;;;22.60;94.00;;;;;;5045028;28;20017;-50
2021/07/20 10:07:06;;;;;;;9.20;3.15;;;22.60;93.50;;;;;;5037138;28;20022;-48
2021/07/20 10:09:48;;;;;;;6.82;3.15;;;22.70;93.80;;;;;;5055126;28;20605;-46
2021/07/20 10:12:47;;;;;;;5.45;3.00;;;22.70;93.30;;;;;;5032895;28;20029;-46
2021/07/20 10:15:16;;;;;;;5.15;3.65;;;22.60;92.70;;;;;;5054805;28;20017;-47
2021/07/20 10:17:56;;;;;;;11.90;4.30;;;22.60;92.60;;;;;;5055948;28;20031;-47
2021/07/20 10:20:25;;;;;;;;;;;22.50;93.90;;;;;;5045329;28;20021;-47
2021/07/20 10:23:15;;;;;;;8.77;3.30;;;22.30;93.00;;;;;;5052930;28;19905;-46
2021/07/20 10:26:07;;;;;;;9.83;3.17;;;22.00;93.30;;;;;;5058807;28;20020;-46
2021/07/20 10:28:40;;;;;;;7.30;2.90;;;22.10;93.30;;;;;;5051142;28;20510;-49
2021/07/20 10:31:11;;;;;;;8.77;3.65;;;22.00;92.10;;;;;;5063431;28;20474;-48
2021/07/20 10:33:51;;;;;;;13.57;3.50;;;22.10;93.60;;;;;;5065924;28;20180;-46
2021/07/20 10:36:22;;;;;;;6.43;3.28;;;22.10;93.10;;;;;;5055467;28;20021;-48
2021/07/20 10:38:57;;;;;;;3.85;2.90;;;22.30;92.80;;;;;;5055811;28;20042;-47
2021/07/20 10:41:38;;;;;;;5.97;3.13;;;23.10;91.70;;;;;;5062048;28;20386;-47
2021/07/20 10:44:24;;;;;;;6.05;3.28;;;23.60;91.00;;;;;;5061492;28;20576;-48
2021/07/20 10:46:53;;;;;;;6.57;2.75;;;23.80;91.60;;;;;;5062741;28;20028;-48
2021/07/20 10:49:34;;;;;;;5.68;3.00;;;23.50;89.40;;;;;;5048375;28;20074;-46
2021/07/20 10:52:21;;;;;;;5.18;2.95;;;23.10;86.70;;;;;;5061570;28;20029;-47
2021/07/20 10:55:08;;;;;;;6.07;2.58;;;22.90;88.10;;;;;;5054645;28;20045;-45
2021/07/20 10:57:46;;;;;;;3.90;2.55;;;22.80;89.00;;;;;;5058083;28;20031;-49
2021/07/20 11:00:15;;;;;;;5.18;3.20;;;22.50;88.80;;;;;;5058236;28;20041;-46
2021/07/20 11:03:14;;;;;;;5.13;2.70;;;22.20;90.00;;;;;;5065569;28;20024;-46
2021/07/20 11:05:47;;;;;;;5.93;3.38;;;22.00;88.80;;;;;;5057434;28;20031;-46
2021/07/20 11:08:15;;;;;;;6.47;3.15;;;21.90;90.00;;;;;;5067506;28;20040;-46
2021/07/20 11:10:51;;;;;;;7.03;2.90;;;21.60;90.90;;;;;;5048787;28;20021;-46
2021/07/20 11:13:22;;;;;;;6.20;2.83;;;21.70;89.40;;;;;;5046813;28;20024;-46
2021/07/20 11:15:53;;;;;;;6.60;2.92;;;22.00;91.80;;;;;;5061314;28;20501;-47
2021/07/20 11:18:23;;;;;;;10.68;2.58;;;22.60;90.40;;;;;;5052583;28;20048;-48
2021/07/20 11:20:50;;;;;;;4.90;2.77;;;23.00;86.20;;;;;;5059340;28;20467;-50
2021/07/20 11:23:18;;;;;;;5.13;2.67;;;23.10;87.80;;;;;;5047291;28;20032;-49
2021/07/20 11:25:47;;;;;;;6.63;2.72;;;23.20;85.90;;;;;;5043759;28;20125;-47
2021/07/20 11:28:14;;;;;;;6.90;3.05;;;23.00;83.30;;;;;;5052739;28;20025;-50
2021/07/20 11:30:44;;;;;;;4.80;2.53;;;22.90;83.70;;;;;;5044688;28;20071;-48
2021/07/20 11:33:16;;;;;;;5.00;2.50;;;22.90;83.90;;;;;;5040823;28;20539;-47
2021/07/20 11:35:47;;;;;;;4.82;2.20;;;22.90;84.70;;;;;;5054341;28;20020;-47
2021/07/20 11:38:17;;;;;;;3.40;2.45;;;22.90;81.90;;;;;;5038179;28;20116;-47
2021/07/20 11:40:53;;;;;;;3.28;2.17;;;23.00;82.80;;;;;;5051918;28;20184;-47
2021/07/20 11:43:26;;;;;;;2.75;2.10;;;22.80;80.80;;;;;;5036203;28;20128;-47
2021/07/20 11:46:14;;;;;;;4.47;2.65;;;22.70;83.50;;;;;;5054229;28;20464;-47
2021/07/20 11:48:51;;;;;;;3.60;2.25;;;22.80;82.10;;;;;;5037575;28;20559;-47
2021/07/20 11:51:29;;;;;;;4.10;2.38;;;22.70;83.40;;;;;;5043890;28;20032;-47
2021/07/20 11:54:16;;;;;;;6.13;2.30;;;22.60;81.60;;;;;;5035409;28;20021;-47
2021/07/20 11:56:58;;;;;;;7.03;2.38;;;22.50;84.10;;;;;;5041771;28;20029;-48
2021/07/20 12:00:02;;;;;;;4.40;2.95;;;22.40;84.70;;;;;;5042884;28;20057;-48
2021/07/20 12:03:13;;;;;;;4.95;2.60;;;22.10;86.60;;;;;;5051140;28;20033;-46
2021/07/20 12:06:05;;;;;;;;;;;21.90;86.50;;;;;;5042044;28;20044;-47
2021/07/20 12:08:53;;;;;;;7.47;3.25;;;21.60;86.40;;;;;;5051938;28;20390;-47
2021/07/20 12:11:21;;;;;;;7.38;3.05;;;21.50;86.80;;;;;;5038619;28;20099;-46
2021/07/20 12:13:48;;;;;;;7.03;3.20;;;21.70;87.70;;;;;;5041090;28;20085;-47
2021/07/20 12:16:15;;;;;;;10.00;3.42;;;22.00;87.60;;;;;;5051441;28;20028;-47
2021/07/20 12:18:53;;;;;;;8.55;3.53;;;22.20;88.00;;;;;;5046492;28;20660;-46
2021/07/20 12:21:24;;;;;;;5.63;2.83;;;22.10;89.90;;;;;;5034509;28;20471;-47
2021/07/20 12:23:51;;;;;;;;;;;22.40;87.40;;;;;;5033803;28;20041;-48
2021/07/20 12:26:19;;;;;;;4.10;3.30;;;22.60;84.60;;;;;;5035056;28;19904;-46
2021/07/20 12:28:47;;;;;;;4.93;2.90;;;23.10;89.50;;;;;;5039135;28;20033;-47
2021/07/20 12:31:13;;;;;;;6.85;3.53;;;23.30;90.40;;;;;;5041846;28;20111;-46
2021/07/20 12:33:44;;;;;;;4.97;3.08;;;23.30;82.50;;;;;;5037962;28;20172;-48
2021/07/20 12:36:12;;;;;;;4.63;2.85;;;23.80;85.80;;;;;;5043547;28;20053;-47
2021/07/20 12:38:37;;;;;;;5.18;2.85;;;24.30;82.50;;;;;;5033732;28;20543;-47
2021/07/20 12:41:14;;;;;;;3.30;2.55;;;24.50;78.50;;;;;;5043573;28;20124;-48
2021/07/20 12:43:45;;;;;;;5.50;2.65;;;25.00;82.80;;;;;;5033929;28;20040;-47
2021/07/20 12:46:20;;;;;;;4.68;2.70;;;25.30;80.00;;;;;;5036206;28;20021;-46
2021/07/20 12:48:51;;;;;;;4.93;2.97;;;25.10;74.50;;;;;;5032537;28;20025;-48
2021/07/20 12:51:18;;;;;;;;;;;25.10;73.50;;;;;;5035461;28;20060;-47
2021/07/20 12:53:45;;;;;;;3.88;2.35;;;24.90;74.50;;;;;;5035097;28;19909;-47
2021/07/20 12:56:29;;;;;;;7.22;2.63;;;24.70;75.60;;;;;;5036303;28;20014;-47
2021/07/20 12:59:02;;;;;;;5.30;2.50;;;24.80;71.20;;;;;;5035351;28;20033;-48
2021/07/20 13:01:30;;;;;;;7.18;2.70;;;24.60;74.20;;;;;;5037115;28;20040;-47
2021/07/20 13:04:01;;;;;;;5.30;2.47;;;24.70;72.80;;;;;;5035091;28;20014;-50
2021/07/20 13:06:32;;;;;;;3.78;2.47;;;24.30;75.80;;;;;;5036924;28;20034;-47
2021/07/20 13:08:58;;;;;;;4.63;2.78;;;24.40;74.00;;;;;;5038750;28;20409;-48